sensor_id;sensor_type;location;lat;lon;timestamp;temperature;humidity
38936;DHT22;66589;47.458;9.644;2023-04-03T00:02:07;8.60;84.60
38936;DHT22;66589;47.458;9.644;2023-04-03T00:04:33;8.60;85.20
38936;DHT22;66589;47.458;9.644;2023-04-03T00:06:59;8.50;84.20
38936;DHT22;66589;47.458;9.644;2023-04-03T00:09:24;8.50;83.90
38936;DHT22;66589;47.458;9.644;2023-04-03T00:11:50;8.40;84.60
38936;DHT22;66589;47.458;9.644;2023-04-03T00:14:16;8.50;84.30
38936;DHT22;66589;47.458;9.644;2023-04-03T00:16:41;8.40;83.70
38936;DHT22;66589;47.458;9.644;2023-04-03T00:19:07;8.40;83.50
38936;DHT22;66589;47.458;9.644;2023-04-03T00:21:33;8.40;83.50
38936;DHT22;66589;47.458;9.644;2023-04-03T00:23:59;8.50;83.20
38936;DHT22;66589;47.458;9.644;2023-04-03T00:26:25;8.50;83.00
38936;DHT22;66589;47.458;9.644;2023-04-03T00:28:50;8.50;83.00
38936;DHT22;66589;47.458;9.644;2023-04-03T00:31:17;8.50;82.40
38936;DHT22;66589;47.458;9.644;2023-04-03T00:33:43;8.50;81.80
38936;DHT22;66589;47.458;9.644;2023-04-03T00:36:10;8.60;82.20
38936;DHT22;66589;47.458;9.644;2023-04-03T00:38:36;8.60;82.40
38936;DHT22;66589;47.458;9.644;2023-04-03T00:41:02;8.60;82.80
38936;DHT22;66589;47.458;9.644;2023-04-03T00:43:28;8.60;83.40
38936;DHT22;66589;47.458;9.644;2023-04-03T00:45:58;8.60;82.30
38936;DHT22;66589;47.458;9.644;2023-04-03T00:48:31;8.60;81.90
38936;DHT22;66589;47.458;9.644;2023-04-03T00:50:57;8.50;81.40
38936;DHT22;66589;47.458;9.644;2023-04-03T00:53:46;8.50;81.70
38936;DHT22;66589;47.458;9.644;2023-04-03T00:56:15;8.50;82.30
38936;DHT22;66589;47.458;9.644;2023-04-03T00:58:54;8.40;82.20
38936;DHT22;66589;47.458;9.644;2023-04-03T01:01:25;8.40;81.60
38936;DHT22;66589;47.458;9.644;2023-04-03T01:03:51;8.40;81.30
38936;DHT22;66589;47.458;9.644;2023-04-03T01:06:21;8.50;81.00
38936;DHT22;66589;47.458;9.644;2023-04-03T01:08:49;8.40;81.00
38936;DHT22;66589;47.458;9.644;2023-04-03T01:11:15;8.40;80.40
38936;DHT22;66589;47.458;9.644;2023-04-03T01:13:41;8.40;80.60
38936;DHT22;66589;47.458;9.644;2023-04-03T01:16:07;8.30;80.80
38936;DHT22;66589;47.458;9.644;2023-04-03T01:18:33;8.20;80.00
38936;DHT22;66589;47.458;9.644;2023-04-03T01:24:44;8.10;80.20
38936;DHT22;66589;47.458;9.644;2023-04-03T01:26:45;8.10;80.40
38936;DHT22;66589;47.458;9.644;2023-04-03T01:29:11;8.10;80.60
38936;DHT22;66589;47.458;9.644;2023-04-03T01:31:52;8.10;79.90
38936;DHT22;66589;47.458;9.644;2023-04-03T01:34:18;8.00;78.80
38936;DHT22;66589;47.458;9.644;2023-04-03T01:36:44;7.90;78.20
38936;DHT22;66589;47.458;9.644;2023-04-03T01:39:10;7.90;75.60
38936;DHT22;66589;47.458;9.644;2023-04-03T01:41:36;7.80;76.10
38936;DHT22;66589;47.458;9.644;2023-04-03T01:44:02;7.70;76.10
38936;DHT22;66589;47.458;9.644;2023-04-03T01:46:27;7.60;75.50
38936;DHT22;66589;47.458;9.644;2023-04-03T01:48:53;7.60;75.40
38936;DHT22;66589;47.458;9.644;2023-04-03T01:51:19;7.60;75.40
38936;DHT22;66589;47.458;9.644;2023-04-03T01:53:44;7.50;77.20
38936;DHT22;66589;47.458;9.644;2023-04-03T01:56:10;7.40;77.40
38936;DHT22;66589;47.458;9.644;2023-04-03T01:58:36;7.50;77.90
38936;DHT22;66589;47.458;9.644;2023-04-03T02:01:02;7.50;77.90
38936;DHT22;66589;47.458;9.644;2023-04-03T02:03:27;7.50;78.20
38936;DHT22;66589;47.458;9.644;2023-04-03T02:05:53;7.50;77.90
38936;DHT22;66589;47.458;9.644;2023-04-03T02:08:19;7.50;78.40
38936;DHT22;66589;47.458;9.644;2023-04-03T02:10:47;7.40;77.10
38936;DHT22;66589;47.458;9.644;2023-04-03T02:13:13;7.40;77.80
38936;DHT22;66589;47.458;9.644;2023-04-03T02:15:39;7.40;77.90
38936;DHT22;66589;47.458;9.644;2023-04-03T02:18:05;7.40;77.70
38936;DHT22;66589;47.458;9.644;2023-04-03T02:20:31;7.30;76.90
38936;DHT22;66589;47.458;9.644;2023-04-03T02:22:56;7.20;77.80
38936;DHT22;66589;47.458;9.644;2023-04-03T02:25:22;7.10;77.60
38936;DHT22;66589;47.458;9.644;2023-04-03T02:27:48;7.00;77.60
38936;DHT22;66589;47.458;9.644;2023-04-03T02:30:13;6.80;76.80
38936;DHT22;66589;47.458;9.644;2023-04-03T02:32:40;6.80;77.10
38936;DHT22;66589;47.458;9.644;2023-04-03T02:35:06;6.80;77.90
38936;DHT22;66589;47.458;9.644;2023-04-03T02:37:32;6.80;78.00
38936;DHT22;66589;47.458;9.644;2023-04-03T02:39:58;6.70;78.10
38936;DHT22;66589;47.458;9.644;2023-04-03T02:42:24;6.70;78.40
38936;DHT22;66589;47.458;9.644;2023-04-03T02:44:49;6.60;78.50
38936;DHT22;66589;47.458;9.644;2023-04-03T02:47:15;6.50;78.70
38936;DHT22;66589;47.458;9.644;2023-04-03T02:49:41;6.50;78.30
38936;DHT22;66589;47.458;9.644;2023-04-03T02:52:09;6.50;78.70
38936;DHT22;66589;47.458;9.644;2023-04-03T02:54:35;6.30;78.90
38936;DHT22;66589;47.458;9.644;2023-04-03T02:57:01;6.30;79.10
38936;DHT22;66589;47.458;9.644;2023-04-03T02:59:27;6.20;79.40
38936;DHT22;66589;47.458;9.644;2023-04-03T03:01:52;6.30;79.20
38936;DHT22;66589;47.458;9.644;2023-04-03T03:04:18;6.30;79.20
38936;DHT22;66589;47.458;9.644;2023-04-03T03:06:44;6.30;79.80
38936;DHT22;66589;47.458;9.644;2023-04-03T03:09:10;6.30;79.60
38936;DHT22;66589;47.458;9.644;2023-04-03T03:11:36;6.30;79.80
38936;DHT22;66589;47.458;9.644;2023-04-03T03:14:01;6.30;79.50
38936;DHT22;66589;47.458;9.644;2023-04-03T03:16:27;6.20;79.30
38936;DHT22;66589;47.458;9.644;2023-04-03T03:18:53;6.20;79.70
38936;DHT22;66589;47.458;9.644;2023-04-03T03:21:18;6.20;79.10
38936;DHT22;66589;47.458;9.644;2023-04-03T03:23:44;6.20;79.00
38936;DHT22;66589;47.458;9.644;2023-04-03T03:26:10;6.10;78.70
38936;DHT22;66589;47.458;9.644;2023-04-03T03:28:37;6.00;78.30
38936;DHT22;66589;47.458;9.644;2023-04-03T03:31:03;5.90;78.30
38936;DHT22;66589;47.458;9.644;2023-04-03T03:33:30;5.80;79.30
38936;DHT22;66589;47.458;9.644;2023-04-03T03:35:56;5.80;79.10
38936;DHT22;66589;47.458;9.644;2023-04-03T03:38:22;5.80;79.00
38936;DHT22;66589;47.458;9.644;2023-04-03T03:40:48;5.80;78.50
38936;DHT22;66589;47.458;9.644;2023-04-03T03:43:15;5.80;78.70
38936;DHT22;66589;47.458;9.644;2023-04-03T03:45:40;5.70;78.70
38936;DHT22;66589;47.458;9.644;2023-04-03T03:48:06;5.80;79.50
38936;DHT22;66589;47.458;9.644;2023-04-03T03:50:32;5.70;80.20
38936;DHT22;66589;47.458;9.644;2023-04-03T03:52:57;5.60;78.00
38936;DHT22;66589;47.458;9.644;2023-04-03T03:55:23;5.60;81.10
38936;DHT22;66589;47.458;9.644;2023-04-03T03:57:49;5.60;81.10
38936;DHT22;66589;47.458;9.644;2023-04-03T04:00:15;5.50;78.50
38936;DHT22;66589;47.458;9.644;2023-04-03T04:02:41;5.60;79.40
38936;DHT22;66589;47.458;9.644;2023-04-03T04:05:06;5.40;78.20
38936;DHT22;66589;47.458;9.644;2023-04-03T04:07:32;5.40;79.00
38936;DHT22;66589;47.458;9.644;2023-04-03T04:09:58;5.50;78.70
38936;DHT22;66589;47.458;9.644;2023-04-03T04:12:24;5.50;78.50
38936;DHT22;66589;47.458;9.644;2023-04-03T04:14:49;5.50;78.60
38936;DHT22;66589;47.458;9.644;2023-04-03T04:17:15;5.50;78.70
38936;DHT22;66589;47.458;9.644;2023-04-03T04:19:41;5.50;78.80
38936;DHT22;66589;47.458;9.644;2023-04-03T04:22:06;5.50;79.30
38936;DHT22;66589;47.458;9.644;2023-04-03T04:24:32;5.50;79.10
38936;DHT22;66589;47.458;9.644;2023-04-03T04:26:58;5.40;79.00
38936;DHT22;66589;47.458;9.644;2023-04-03T04:29:24;5.50;78.90
38936;DHT22;66589;47.458;9.644;2023-04-03T04:31:49;5.50;79.00
38936;DHT22;66589;47.458;9.644;2023-04-03T04:34:15;5.40;79.00
38936;DHT22;66589;47.458;9.644;2023-04-03T04:36:41;5.50;79.20
38936;DHT22;66589;47.458;9.644;2023-04-03T04:39:07;5.50;79.10
38936;DHT22;66589;47.458;9.644;2023-04-03T04:41:33;5.50;79.00
38936;DHT22;66589;47.458;9.644;2023-04-03T04:43:59;5.60;78.80
38936;DHT22;66589;47.458;9.644;2023-04-03T04:46:25;5.50;79.40
38936;DHT22;66589;47.458;9.644;2023-04-03T04:48:51;5.60;78.30
38936;DHT22;66589;47.458;9.644;2023-04-03T04:51:17;5.60;78.10
38936;DHT22;66589;47.458;9.644;2023-04-03T04:53:50;5.60;78.30
38936;DHT22;66589;47.458;9.644;2023-04-03T04:56:16;5.50;78.50
38936;DHT22;66589;47.458;9.644;2023-04-03T04:58:42;5.60;78.60
38936;DHT22;66589;47.458;9.644;2023-04-03T05:01:09;5.50;79.00
38936;DHT22;66589;47.458;9.644;2023-04-03T05:03:35;5.50;78.70
38936;DHT22;66589;47.458;9.644;2023-04-03T05:06:01;5.60;78.90
38936;DHT22;66589;47.458;9.644;2023-04-03T05:08:27;5.60;78.70
38936;DHT22;66589;47.458;9.644;2023-04-03T05:10:52;5.60;78.90
38936;DHT22;66589;47.458;9.644;2023-04-03T05:13:19;5.60;79.10
38936;DHT22;66589;47.458;9.644;2023-04-03T05:15:45;5.60;79.00
38936;DHT22;66589;47.458;9.644;2023-04-03T05:18:11;5.60;79.40
38936;DHT22;66589;47.458;9.644;2023-04-03T05:20:37;5.60;79.70
38936;DHT22;66589;47.458;9.644;2023-04-03T05:23:02;5.60;79.40
38936;DHT22;66589;47.458;9.644;2023-04-03T05:25:28;5.60;79.80
38936;DHT22;66589;47.458;9.644;2023-04-03T05:27:54;5.70;79.30
38936;DHT22;66589;47.458;9.644;2023-04-03T05:30:20;5.70;79.50
38936;DHT22;66589;47.458;9.644;2023-04-03T05:32:45;5.70;79.70
38936;DHT22;66589;47.458;9.644;2023-04-03T05:35:11;5.70;79.60
38936;DHT22;66589;47.458;9.644;2023-04-03T05:37:37;5.80;79.70
38936;DHT22;66589;47.458;9.644;2023-04-03T05:40:04;5.90;79.90
38936;DHT22;66589;47.458;9.644;2023-04-03T05:42:30;5.90;79.90
38936;DHT22;66589;47.458;9.644;2023-04-03T05:44:56;5.80;80.00
38936;DHT22;66589;47.458;9.644;2023-04-03T05:47:22;5.70;80.60
38936;DHT22;66589;47.458;9.644;2023-04-03T05:49:48;5.80;80.60
38936;DHT22;66589;47.458;9.644;2023-04-03T05:52:37;5.80;80.80
38936;DHT22;66589;47.458;9.644;2023-04-03T05:55:05;5.90;80.40
38936;DHT22;66589;47.458;9.644;2023-04-03T05:57:31;6.00;80.60
38936;DHT22;66589;47.458;9.644;2023-04-03T05:59:57;6.10;80.40
38936;DHT22;66589;47.458;9.644;2023-04-03T06:02:24;6.10;80.20
38936;DHT22;66589;47.458;9.644;2023-04-03T06:04:50;6.20;79.60
38936;DHT22;66589;47.458;9.644;2023-04-03T06:07:18;6.30;78.50
38936;DHT22;66589;47.458;9.644;2023-04-03T06:09:46;6.40;79.10
38936;DHT22;66589;47.458;9.644;2023-04-03T06:12:12;6.50;79.00
38936;DHT22;66589;47.458;9.644;2023-04-03T06:14:38;6.60;79.50
38936;DHT22;66589;47.458;9.644;2023-04-03T06:17:04;6.60;77.80
38936;DHT22;66589;47.458;9.644;2023-04-03T06:19:30;6.60;79.10
38936;DHT22;66589;47.458;9.644;2023-04-03T06:21:56;6.60;78.30
38936;DHT22;66589;47.458;9.644;2023-04-03T06:24:22;6.50;78.80
38936;DHT22;66589;47.458;9.644;2023-04-03T06:26:49;6.60;78.00
38936;DHT22;66589;47.458;9.644;2023-04-03T06:29:16;6.60;77.80
38936;DHT22;66589;47.458;9.644;2023-04-03T06:31:43;6.60;77.60
38936;DHT22;66589;47.458;9.644;2023-04-03T06:34:09;6.70;78.10
38936;DHT22;66589;47.458;9.644;2023-04-03T06:36:37;6.80;77.40
38936;DHT22;66589;47.458;9.644;2023-04-03T06:39:03;6.80;77.80
38936;DHT22;66589;47.458;9.644;2023-04-03T06:41:28;6.80;77.80
38936;DHT22;66589;47.458;9.644;2023-04-03T06:43:54;6.70;77.00
38936;DHT22;66589;47.458;9.644;2023-04-03T06:46:23;6.70;77.00
38936;DHT22;66589;47.458;9.644;2023-04-03T06:48:49;6.70;77.00
38936;DHT22;66589;47.458;9.644;2023-04-03T06:51:20;6.70;77.40
38936;DHT22;66589;47.458;9.644;2023-04-03T06:53:50;6.60;77.40
38936;DHT22;66589;47.458;9.644;2023-04-03T06:56:17;6.70;78.10
38936;DHT22;66589;47.458;9.644;2023-04-03T06:58:43;6.70;78.70
38936;DHT22;66589;47.458;9.644;2023-04-03T07:01:10;6.80;79.00
38936;DHT22;66589;47.458;9.644;2023-04-03T07:03:36;6.90;77.60
38936;DHT22;66589;47.458;9.644;2023-04-03T07:06:03;6.90;77.90
38936;DHT22;66589;47.458;9.644;2023-04-03T07:08:29;6.90;77.50
38936;DHT22;66589;47.458;9.644;2023-04-03T07:10:55;6.90;77.40
38936;DHT22;66589;47.458;9.644;2023-04-03T07:13:20;6.90;77.60
38936;DHT22;66589;47.458;9.644;2023-04-03T07:15:46;6.90;77.50
38936;DHT22;66589;47.458;9.644;2023-04-03T07:18:12;6.80;77.60
38936;DHT22;66589;47.458;9.644;2023-04-03T07:20:38;6.80;77.10
38936;DHT22;66589;47.458;9.644;2023-04-03T07:23:04;6.80;77.00
38936;DHT22;66589;47.458;9.644;2023-04-03T07:25:30;6.80;77.60
38936;DHT22;66589;47.458;9.644;2023-04-03T07:27:57;6.90;77.90
38936;DHT22;66589;47.458;9.644;2023-04-03T07:30:23;6.80;77.50
38936;DHT22;66589;47.458;9.644;2023-04-03T07:32:49;6.80;77.50
38936;DHT22;66589;47.458;9.644;2023-04-03T07:35:15;6.70;76.90
38936;DHT22;66589;47.458;9.644;2023-04-03T07:37:40;6.80;77.90
38936;DHT22;66589;47.458;9.644;2023-04-03T07:40:07;6.70;78.00
38936;DHT22;66589;47.458;9.644;2023-04-03T07:42:34;6.80;78.00
38936;DHT22;66589;47.458;9.644;2023-04-03T07:45:01;6.80;77.30
38936;DHT22;66589;47.458;9.644;2023-04-03T07:47:27;6.80;77.30
38936;DHT22;66589;47.458;9.644;2023-04-03T07:49:53;6.90;76.90
38936;DHT22;66589;47.458;9.644;2023-04-03T07:52:18;6.90;76.80
38936;DHT22;66589;47.458;9.644;2023-04-03T07:54:44;6.90;77.00
38936;DHT22;66589;47.458;9.644;2023-04-03T07:57:10;7.00;77.50
38936;DHT22;66589;47.458;9.644;2023-04-03T07:59:36;7.10;76.90
38936;DHT22;66589;47.458;9.644;2023-04-03T08:02:01;7.20;77.10
38936;DHT22;66589;47.458;9.644;2023-04-03T08:04:30;7.10;77.10
38936;DHT22;66589;47.458;9.644;2023-04-03T08:06:55;7.20;76.90
38936;DHT22;66589;47.458;9.644;2023-04-03T08:09:21;7.20;76.90
38936;DHT22;66589;47.458;9.644;2023-04-03T08:11:47;7.30;76.30
38936;DHT22;66589;47.458;9.644;2023-04-03T08:14:13;7.30;76.30
38936;DHT22;66589;47.458;9.644;2023-04-03T08:16:43;7.30;75.40
38936;DHT22;66589;47.458;9.644;2023-04-03T08:19:09;7.30;75.60
38936;DHT22;66589;47.458;9.644;2023-04-03T08:21:36;7.30;75.70
38936;DHT22;66589;47.458;9.644;2023-04-03T08:24:01;7.40;76.20
38936;DHT22;66589;47.458;9.644;2023-04-03T08:26:28;7.50;75.60
38936;DHT22;66589;47.458;9.644;2023-04-03T08:28:54;7.50;75.80
38936;DHT22;66589;47.458;9.644;2023-04-03T08:31:20;7.60;74.40
38936;DHT22;66589;47.458;9.644;2023-04-03T08:33:46;7.80;74.50
38936;DHT22;66589;47.458;9.644;2023-04-03T08:36:22;7.90;73.20
38936;DHT22;66589;47.458;9.644;2023-04-03T08:38:49;8.00;73.80
38936;DHT22;66589;47.458;9.644;2023-04-03T08:49:39;8.10;73.40
38936;DHT22;66589;47.458;9.644;2023-04-03T08:52:11;8.00;72.60
38936;DHT22;66589;47.458;9.644;2023-04-03T08:57:15;8.00;73.10
38936;DHT22;66589;47.458;9.644;2023-04-03T08:59:43;8.00;72.10
38936;DHT22;66589;47.458;9.644;2023-04-03T09:02:25;8.00;72.90
38936;DHT22;66589;47.458;9.644;2023-04-03T09:04:53;8.00;74.30
38936;DHT22;66589;47.458;9.644;2023-04-03T09:07:30;8.00;73.90
38936;DHT22;66589;47.458;9.644;2023-04-03T09:09:59;8.20;75.20
38936;DHT22;66589;47.458;9.644;2023-04-03T09:12:49;8.30;72.60
38936;DHT22;66589;47.458;9.644;2023-04-03T09:15:26;8.40;72.30
38936;DHT22;66589;47.458;9.644;2023-04-03T09:20:39;8.60;71.80
38936;DHT22;66589;47.458;9.644;2023-04-03T09:23:28;8.70;72.00
38936;DHT22;66589;47.458;9.644;2023-04-03T09:26:03;8.80;71.90
38936;DHT22;66589;47.458;9.644;2023-04-03T09:28:35;8.80;70.00
38936;DHT22;66589;47.458;9.644;2023-04-03T09:33:43;8.90;69.90
38936;DHT22;66589;47.458;9.644;2023-04-03T09:36:10;8.90;69.90
38936;DHT22;66589;47.458;9.644;2023-04-03T09:38:36;9.00;70.00
38936;DHT22;66589;47.458;9.644;2023-04-03T09:41:12;9.00;69.80
38936;DHT22;66589;47.458;9.644;2023-04-03T09:43:38;8.90;69.50
38936;DHT22;66589;47.458;9.644;2023-04-03T09:49:00;9.00;68.30
38936;DHT22;66589;47.458;9.644;2023-04-03T09:51:29;9.30;69.30
38936;DHT22;66589;47.458;9.644;2023-04-03T09:53:55;9.30;68.10
38936;DHT22;66589;47.458;9.644;2023-04-03T09:56:27;9.50;67.80
38936;DHT22;66589;47.458;9.644;2023-04-03T10:01:31;9.80;68.00
38936;DHT22;66589;47.458;9.644;2023-04-03T10:04:13;9.90;66.40
38936;DHT22;66589;47.458;9.644;2023-04-03T10:06:46;9.70;66.20
38936;DHT22;66589;47.458;9.644;2023-04-03T10:09:27;9.40;66.00
38936;DHT22;66589;47.458;9.644;2023-04-03T10:14:34;9.60;66.20
38936;DHT22;66589;47.458;9.644;2023-04-03T10:19:36;9.40;67.60
38936;DHT22;66589;47.458;9.644;2023-04-03T10:25:37;9.90;65.50
38936;DHT22;66589;47.458;9.644;2023-04-03T10:27:55;9.90;64.60
38936;DHT22;66589;47.458;9.644;2023-04-03T10:30:58;9.90;64.40
38936;DHT22;66589;47.458;9.644;2023-04-03T10:44:38;9.70;65.40
38936;DHT22;66589;47.458;9.644;2023-04-03T10:52:23;9.30;64.90
38936;DHT22;66589;47.458;9.644;2023-04-03T10:57:47;9.20;67.20
38936;DHT22;66589;47.458;9.644;2023-04-03T11:00:21;9.00;65.40
38936;DHT22;66589;47.458;9.644;2023-04-03T11:03:00;8.90;66.40
38936;DHT22;66589;47.458;9.644;2023-04-03T11:05:34;8.80;65.90
38936;DHT22;66589;47.458;9.644;2023-04-03T11:08:11;8.70;66.50
38936;DHT22;66589;47.458;9.644;2023-04-03T11:10:50;8.80;66.70
38936;DHT22;66589;47.458;9.644;2023-04-03T11:15:53;8.90;67.00
38936;DHT22;66589;47.458;9.644;2023-04-03T11:18:27;8.80;65.60
38936;DHT22;66589;47.458;9.644;2023-04-03T11:21:01;8.80;67.10
38936;DHT22;66589;47.458;9.644;2023-04-03T11:23:33;8.80;66.20
38936;DHT22;66589;47.458;9.644;2023-04-03T11:26:11;8.80;66.00
38936;DHT22;66589;47.458;9.644;2023-04-03T11:28:37;8.80;65.70
38936;DHT22;66589;47.458;9.644;2023-04-03T11:36:57;8.90;66.80
38936;DHT22;66589;47.458;9.644;2023-04-03T11:39:34;8.90;67.50
38936;DHT22;66589;47.458;9.644;2023-04-03T11:42:14;9.00;65.60
38936;DHT22;66589;47.458;9.644;2023-04-03T11:44:41;9.00;65.00
38936;DHT22;66589;47.458;9.644;2023-04-03T11:47:08;9.10;65.50
38936;DHT22;66589;47.458;9.644;2023-04-03T11:50:03;9.20;63.20
38936;DHT22;66589;47.458;9.644;2023-04-03T12:00:50;9.80;62.60
38936;DHT22;66589;47.458;9.644;2023-04-03T12:08:45;10.30;60.80
38936;DHT22;66589;47.458;9.644;2023-04-03T12:32:49;10.00;60.40
38936;DHT22;66589;47.458;9.644;2023-04-03T12:35:39;9.80;59.30
38936;DHT22;66589;47.458;9.644;2023-04-03T12:46:53;9.90;60.60
38936;DHT22;66589;47.458;9.644;2023-04-03T12:51:50;9.90;60.50
38936;DHT22;66589;47.458;9.644;2023-04-03T12:54:21;9.90;60.20
38936;DHT22;66589;47.458;9.644;2023-04-03T12:56:48;9.80;60.60
38936;DHT22;66589;47.458;9.644;2023-04-03T12:59:20;9.60;61.90
38936;DHT22;66589;47.458;9.644;2023-04-03T13:01:57;9.50;60.40
38936;DHT22;66589;47.458;9.644;2023-04-03T13:04:24;9.50;60.40
38936;DHT22;66589;47.458;9.644;2023-04-03T13:06:50;9.50;61.00
38936;DHT22;66589;47.458;9.644;2023-04-03T13:09:24;9.50;59.80
38936;DHT22;66589;47.458;9.644;2023-04-03T13:12:01;9.50;59.10
38936;DHT22;66589;47.458;9.644;2023-04-03T13:14:28;9.50;59.30
38936;DHT22;66589;47.458;9.644;2023-04-03T13:16:59;9.50;58.60
38936;DHT22;66589;47.458;9.644;2023-04-03T13:19:27;9.50;61.40
38936;DHT22;66589;47.458;9.644;2023-04-03T13:22:05;9.50;63.90
38936;DHT22;66589;47.458;9.644;2023-04-03T13:24:35;9.50;61.60
38936;DHT22;66589;47.458;9.644;2023-04-03T13:27:02;9.40;62.60
38936;DHT22;66589;47.458;9.644;2023-04-03T13:29:38;9.30;62.50
38936;DHT22;66589;47.458;9.644;2023-04-03T13:32:05;9.40;65.30
38936;DHT22;66589;47.458;9.644;2023-04-03T13:34:41;9.40;68.60
38936;DHT22;66589;47.458;9.644;2023-04-03T13:37:23;9.60;65.90
38936;DHT22;66589;47.458;9.644;2023-04-03T13:42:32;9.60;60.40
38936;DHT22;66589;47.458;9.644;2023-04-03T13:47:40;9.40;61.90
38936;DHT22;66589;47.458;9.644;2023-04-03T13:50:20;9.40;65.70
38936;DHT22;66589;47.458;9.644;2023-04-03T13:52:54;9.40;64.40
38936;DHT22;66589;47.458;9.644;2023-04-03T13:55:29;9.50;66.20
38936;DHT22;66589;47.458;9.644;2023-04-03T13:58:19;9.60;65.70
38936;DHT22;66589;47.458;9.644;2023-04-03T14:00:50;9.40;63.70
38936;DHT22;66589;47.458;9.644;2023-04-03T14:03:24;9.30;62.60
38936;DHT22;66589;47.458;9.644;2023-04-03T14:05:50;9.10;61.20
38936;DHT22;66589;47.458;9.644;2023-04-03T14:08:17;9.10;60.70
38936;DHT22;66589;47.458;9.644;2023-04-03T14:10:49;9.10;60.70
38936;DHT22;66589;47.458;9.644;2023-04-03T14:13:18;9.20;60.20
38936;DHT22;66589;47.458;9.644;2023-04-03T14:15:46;9.20;60.20
38936;DHT22;66589;47.458;9.644;2023-04-03T14:18:16;9.20;59.50
38936;DHT22;66589;47.458;9.644;2023-04-03T14:20:43;9.10;60.10
38936;DHT22;66589;47.458;9.644;2023-04-03T14:23:09;9.20;59.10
38936;DHT22;66589;47.458;9.644;2023-04-03T14:25:36;9.20;59.20
38936;DHT22;66589;47.458;9.644;2023-04-03T14:28:14;9.10;59.60
38936;DHT22;66589;47.458;9.644;2023-04-03T14:30:40;9.10;59.10
38936;DHT22;66589;47.458;9.644;2023-04-03T14:33:06;9.20;59.00
38936;DHT22;66589;47.458;9.644;2023-04-03T14:35:32;9.30;59.30
38936;DHT22;66589;47.458;9.644;2023-04-03T14:37:58;9.40;58.80
38936;DHT22;66589;47.458;9.644;2023-04-03T14:40:26;9.40;58.30
38936;DHT22;66589;47.458;9.644;2023-04-03T14:42:53;9.40;59.40
38936;DHT22;66589;47.458;9.644;2023-04-03T14:45:21;9.40;58.40
38936;DHT22;66589;47.458;9.644;2023-04-03T14:47:50;9.50;58.40
38936;DHT22;66589;47.458;9.644;2023-04-03T14:50:24;9.40;58.40
38936;DHT22;66589;47.458;9.644;2023-04-03T14:52:53;9.40;58.70
38936;DHT22;66589;47.458;9.644;2023-04-03T14:55:20;9.50;59.30
38936;DHT22;66589;47.458;9.644;2023-04-03T14:57:46;9.60;59.00
38936;DHT22;66589;47.458;9.644;2023-04-03T15:00:14;9.60;60.50
38936;DHT22;66589;47.458;9.644;2023-04-03T15:02:40;9.60;58.80
38936;DHT22;66589;47.458;9.644;2023-04-03T15:05:08;9.60;58.40
38936;DHT22;66589;47.458;9.644;2023-04-03T15:07:54;9.50;58.20
38936;DHT22;66589;47.458;9.644;2023-04-03T15:10:28;9.50;58.30
38936;DHT22;66589;47.458;9.644;2023-04-03T15:12:55;9.50;59.10
38936;DHT22;66589;47.458;9.644;2023-04-03T15:15:22;9.60;57.50
38936;DHT22;66589;47.458;9.644;2023-04-03T15:17:51;9.50;57.60
38936;DHT22;66589;47.458;9.644;2023-04-03T15:20:21;9.40;58.70
38936;DHT22;66589;47.458;9.644;2023-04-03T15:22:48;9.50;58.80
38936;DHT22;66589;47.458;9.644;2023-04-03T15:25:14;9.50;57.80
38936;DHT22;66589;47.458;9.644;2023-04-03T15:27:40;9.40;57.80
38936;DHT22;66589;47.458;9.644;2023-04-03T15:30:08;9.20;57.80
38936;DHT22;66589;47.458;9.644;2023-04-03T15:32:34;9.20;58.10
38936;DHT22;66589;47.458;9.644;2023-04-03T15:35:01;9.10;58.50
38936;DHT22;66589;47.458;9.644;2023-04-03T15:37:27;9.10;58.70
38936;DHT22;66589;47.458;9.644;2023-04-03T15:39:53;9.10;57.30
38936;DHT22;66589;47.458;9.644;2023-04-03T15:42:19;9.00;58.10
38936;DHT22;66589;47.458;9.644;2023-04-03T15:44:45;8.90;58.60
38936;DHT22;66589;47.458;9.644;2023-04-03T15:47:11;8.90;58.90
38936;DHT22;66589;47.458;9.644;2023-04-03T15:49:38;8.90;59.10
38936;DHT22;66589;47.458;9.644;2023-04-03T15:52:03;8.90;61.70
38936;DHT22;66589;47.458;9.644;2023-04-03T15:54:29;8.90;59.10
38936;DHT22;66589;47.458;9.644;2023-04-03T15:56:55;8.80;59.70
38936;DHT22;66589;47.458;9.644;2023-04-03T15:59:21;8.70;60.10
38936;DHT22;66589;47.458;9.644;2023-04-03T16:01:48;8.60;60.90
38936;DHT22;66589;47.458;9.644;2023-04-03T16:04:15;8.60;61.30
38936;DHT22;66589;47.458;9.644;2023-04-03T16:06:41;8.50;60.00
38936;DHT22;66589;47.458;9.644;2023-04-03T16:09:08;8.50;60.80
38936;DHT22;66589;47.458;9.644;2023-04-03T16:11:34;8.50;59.80
38936;DHT22;66589;47.458;9.644;2023-04-03T16:14:01;8.40;60.00
38936;DHT22;66589;47.458;9.644;2023-04-03T16:16:27;8.30;60.20
38936;DHT22;66589;47.458;9.644;2023-04-03T16:18:54;8.30;59.80
38936;DHT22;66589;47.458;9.644;2023-04-03T16:21:21;8.20;60.00
38936;DHT22;66589;47.458;9.644;2023-04-03T16:23:46;8.10;60.50
38936;DHT22;66589;47.458;9.644;2023-04-03T16:26:12;8.10;60.00
38936;DHT22;66589;47.458;9.644;2023-04-03T16:28:39;8.10;60.00
38936;DHT22;66589;47.458;9.644;2023-04-03T16:31:06;8.10;58.60
38936;DHT22;66589;47.458;9.644;2023-04-03T16:33:32;8.10;60.00
38936;DHT22;66589;47.458;9.644;2023-04-03T16:35:58;8.00;59.90
38936;DHT22;66589;47.458;9.644;2023-04-03T16:38:25;8.00;59.90
38936;DHT22;66589;47.458;9.644;2023-04-03T16:40:50;7.90;60.40
38936;DHT22;66589;47.458;9.644;2023-04-03T16:43:18;7.90;61.50
38936;DHT22;66589;47.458;9.644;2023-04-03T16:45:43;7.90;61.90
38936;DHT22;66589;47.458;9.644;2023-04-03T16:48:09;7.80;61.50
38936;DHT22;66589;47.458;9.644;2023-04-03T16:50:35;7.70;61.90
38936;DHT22;66589;47.458;9.644;2023-04-03T16:53:01;7.60;62.10
38936;DHT22;66589;47.458;9.644;2023-04-03T16:55:28;7.50;62.70
38936;DHT22;66589;47.458;9.644;2023-04-03T16:57:54;7.50;61.90
38936;DHT22;66589;47.458;9.644;2023-04-03T17:00:20;7.50;62.90
38936;DHT22;66589;47.458;9.644;2023-04-03T17:02:46;7.50;62.70
38936;DHT22;66589;47.458;9.644;2023-04-03T17:05:12;7.50;62.70
38936;DHT22;66589;47.458;9.644;2023-04-03T17:07:37;7.50;64.00
38936;DHT22;66589;47.458;9.644;2023-04-03T17:10:03;7.40;63.30
38936;DHT22;66589;47.458;9.644;2023-04-03T17:12:29;7.30;65.20
38936;DHT22;66589;47.458;9.644;2023-04-03T17:14:55;7.40;64.90
38936;DHT22;66589;47.458;9.644;2023-04-03T17:17:23;7.40;65.40
38936;DHT22;66589;47.458;9.644;2023-04-03T17:19:50;7.40;65.50
38936;DHT22;66589;47.458;9.644;2023-04-03T17:22:16;7.40;65.10
38936;DHT22;66589;47.458;9.644;2023-04-03T17:24:43;7.30;63.90
38936;DHT22;66589;47.458;9.644;2023-04-03T17:27:09;7.30;63.90
38936;DHT22;66589;47.458;9.644;2023-04-03T17:29:35;7.30;64.60
38936;DHT22;66589;47.458;9.644;2023-04-03T17:32:01;7.20;64.10
38936;DHT22;66589;47.458;9.644;2023-04-03T17:34:26;7.20;65.60
38936;DHT22;66589;47.458;9.644;2023-04-03T17:36:52;7.20;67.00
38936;DHT22;66589;47.458;9.644;2023-04-03T17:39:18;7.10;65.40
38936;DHT22;66589;47.458;9.644;2023-04-03T17:41:43;7.10;65.90
38936;DHT22;66589;47.458;9.644;2023-04-03T17:44:11;7.00;65.30